createdAt,value
2023-04-10T00:00:46.036Z,97757.81
2023-04-10T00:04:46.613Z,97759.38
2023-04-10T00:08:50.143Z,97762.16
2023-04-10T00:12:54.085Z,97759.22
2023-04-10T00:16:55.218Z,97752.28
2023-04-10T00:20:55.773Z,97749.97
2023-04-10T00:24:59.138Z,97753.63
2023-04-10T00:28:59.561Z,97751.59
2023-04-10T00:33:00.273Z,97742.63
2023-04-10T00:37:02.284Z,97733.88
2023-04-10T00:41:05.956Z,97726.38
2023-04-10T00:45:07.113Z,97727.66
2023-04-10T00:49:09.869Z,97720.94
2023-04-10T00:53:10.262Z,97709.97
2023-04-10T00:57:14.083Z,97728.75
2023-04-10T01:01:15.599Z,97724.66
2023-04-10T01:05:17.049Z,97712.06
2023-04-10T01:09:36.774Z,97720.44
2023-04-10T01:14:04.367Z,97723.06
2023-04-10T01:18:16.037Z,97716.81
2023-04-10T01:22:20.684Z,97719.72
2023-04-10T01:26:42.759Z,97701.53
2023-04-10T01:30:48.168Z,97713.00
2023-04-10T01:34:53.172Z,97718.28
2023-04-10T01:38:56.815Z,97706.13
2023-04-10T01:43:00.641Z,97712.00
2023-04-10T01:47:18.489Z,97708.38
2023-04-10T01:51:21.327Z,97712.38
2023-04-10T01:55:24.247Z,97719.28
2023-04-10T01:59:30.357Z,97716.03
2023-04-10T02:03:34.596Z,97712.25
2023-04-10T02:07:47.785Z,97707.09
2023-04-10T02:11:58.352Z,97709.38
2023-04-10T02:16:08.514Z,97701.47
2023-04-10T02:20:14.151Z,97704.59
2023-04-10T02:24:14.987Z,97703.41
2023-04-10T02:28:15.663Z,97709.13
2023-04-10T02:32:17.760Z,97711.88
2023-04-10T02:36:23.044Z,97705.19
2023-04-10T02:40:23.806Z,97706.75
2023-04-10T02:44:30.989Z,97708.31
2023-04-10T02:48:32.396Z,97712.69
2023-04-10T02:52:39.166Z,97715.56
2023-04-10T02:56:39.696Z,97717.03
2023-04-10T03:00:40.387Z,97712.16
2023-04-10T03:04:47.242Z,97719.78
2023-04-10T03:08:50.762Z,97719.78
2023-04-10T03:12:51.736Z,97709.34
2023-04-10T03:16:52.595Z,97700.56
2023-04-10T03:20:53.230Z,97706.56
2023-04-10T03:24:57.096Z,97702.56
2023-04-10T03:28:57.465Z,97708.72
2023-04-10T03:32:58.311Z,97706.63
2023-04-10T03:36:58.889Z,97711.97
2023-04-10T03:41:02.513Z,97709.47
2023-04-10T03:45:06.782Z,97697.13
2023-04-10T03:49:07.889Z,97684.41
2023-04-10T03:53:08.975Z,97710.81
2023-04-10T03:57:12.237Z,97703.22
2023-04-10T04:01:13.360Z,97717.03
2023-04-10T04:05:36.196Z,97705.63
2023-04-10T04:10:15.620Z,97712.13
2023-04-10T04:14:40.901Z,97706.16
2023-04-10T04:19:04.590Z,97721.38
2023-04-10T04:23:12.752Z,97730.44
2023-04-10T04:27:17.308Z,97741.25
2023-04-10T04:31:53.993Z,97730.97
2023-04-10T04:36:15.916Z,97735.88
2023-04-10T04:40:31.228Z,97754.56
2023-04-10T04:44:39.240Z,97744.41
2023-04-10T04:48:51.512Z,97743.34
2023-04-10T04:53:10.380Z,97739.00
2023-04-10T04:57:33.896Z,97713.91
2023-04-10T05:01:53.442Z,97735.69
2023-04-10T05:06:10.282Z,97734.84
2023-04-10T05:10:21.809Z,97732.84
2023-04-10T05:14:42.734Z,97738.56
2023-04-10T05:18:59.177Z,97755.53
2023-04-10T05:23:20.964Z,97754.81
2023-04-10T05:27:34.680Z,97757.34
2023-04-10T05:32:01.252Z,97765.03
2023-04-10T05:36:18.479Z,97751.19
2023-04-10T05:40:33.897Z,97757.34
2023-04-10T05:44:49.184Z,97751.09
2023-04-10T05:49:09.817Z,97761.91
2023-04-10T05:53:34.814Z,97762.56
2023-04-10T05:57:38.512Z,97758.59
2023-04-10T06:02:12.360Z,97758.25
2023-04-10T06:06:17.096Z,97752.59
2023-04-10T06:10:18.379Z,97751.00
2023-04-10T06:14:22.994Z,97733.31
2023-04-10T06:18:24.163Z,97729.44
2023-04-10T06:22:24.710Z,97739.47
2023-04-10T06:26:25.688Z,97730.41
2023-04-10T06:30:31.129Z,97737.41
2023-04-10T06:34:32.330Z,97733.94
2023-04-10T06:38:38.198Z,97743.94
2023-04-10T06:42:39.529Z,97738.00
2023-04-10T06:46:48.670Z,97724.78
2023-04-10T06:50:49.416Z,97727.38
2023-04-10T06:54:50.086Z,97732.69
2023-04-10T06:58:50.828Z,97724.78
2023-04-10T07:02:54.232Z,97730.06
2023-04-10T07:06:54.766Z,97730.06
2023-04-10T07:10:58.646Z,97724.53
2023-04-10T07:14:59.635Z,97723.88
2023-04-10T07:19:03.242Z,97722.78
2023-04-10T07:23:03.924Z,97719.59
2023-04-10T07:27:04.572Z,97719.88
2023-04-10T07:31:05.064Z,97720.50
2023-04-10T07:35:10.143Z,97708.00
2023-04-10T07:39:10.630Z,97714.81
2023-04-10T07:43:10.997Z,97718.53
2023-04-10T07:47:11.826Z,97721.38
2023-04-10T07:51:15.251Z,97697.38
2023-04-10T07:55:15.821Z,97708.03
2023-04-10T07:59:19.315Z,97700.53
2023-04-10T08:03:21.976Z,97696.31
2023-04-10T08:07:25.933Z,97689.03
2023-04-10T08:11:35.227Z,97681.81
2023-04-10T08:15:38.403Z,97671.31
2023-04-10T08:19:39.005Z,97672.19
2023-04-10T08:23:43.114Z,97673.66
2023-04-10T08:27:49.867Z,97663.50
2023-04-10T08:31:50.470Z,97666.44
2023-04-10T08:35:53.586Z,97661.94
2023-04-10T08:39:57.462Z,97662.00
2023-04-10T08:43:58.381Z,97664.16
2023-04-10T08:48:05.836Z,97662.19
2023-04-10T08:52:10.708Z,97657.25
2023-04-10T08:56:17.585Z,97650.78
2023-04-10T09:00:23.463Z,97650.53
2023-04-10T09:04:26.896Z,97610.00
2023-04-10T09:08:29.653Z,97640.03
2023-04-10T09:12:33.021Z,97631.91
2023-04-10T09:16:35.276Z,97628.56
2023-04-10T09:20:36.913Z,97634.63
2023-04-10T09:24:44.605Z,97629.47
2023-04-10T09:29:01.110Z,97618.59
2023-04-10T09:33:02.980Z,97625.91
2023-04-10T09:37:04.992Z,97625.06
2023-04-10T09:41:13.040Z,97617.47
2023-04-10T09:45:20.239Z,97622.41
2023-04-10T09:49:20.842Z,97614.28
2023-04-10T09:53:23.958Z,97597.84
2023-04-10T09:57:27.008Z,97592.25
2023-04-10T10:01:34.809Z,97585.94
2023-04-10T10:05:35.818Z,97583.59
2023-04-10T10:09:37.808Z,97575.69
2023-04-10T10:13:50.475Z,97567.41
2023-04-10T10:18:06.842Z,97558.88
2023-04-10T10:22:09.620Z,97556.19
2023-04-10T10:26:13.350Z,97550.53
2023-04-10T10:30:29.469Z,97542.91
2023-04-10T10:34:33.960Z,97540.41
2023-04-10T10:38:36.439Z,97535.50
2023-04-10T10:42:49.044Z,97527.44
2023-04-10T10:46:55.787Z,97527.78
2023-04-10T10:51:04.567Z,97512.91
2023-04-10T10:55:42.517Z,97501.66
2023-04-10T10:59:59.251Z,97497.28
2023-04-10T11:04:00.341Z,97495.78
2023-04-10T11:08:18.601Z,97487.25
2023-04-10T11:12:20.458Z,97487.41
2023-04-10T11:16:22.004Z,97486.69
2023-04-10T11:20:31.010Z,97482.59
2023-04-10T11:25:08.847Z,97479.31
2023-04-10T11:29:36.482Z,97484.41
2023-04-10T11:33:37.656Z,97482.19
2023-04-10T11:37:38.902Z,97472.78
2023-04-10T11:41:46.035Z,97463.81
2023-04-10T11:45:47.907Z,97465.75
2023-04-10T11:49:58.929Z,97461.53
2023-04-10T11:54:11.650Z,97455.91
2023-04-10T11:58:33.184Z,97452.69
2023-04-10T12:02:33.861Z,97448.69
2023-04-10T12:06:34.357Z,97435.69
2023-04-10T12:10:49.222Z,97427.13
2023-04-10T12:14:52.699Z,97425.19
2023-04-10T12:18:54.201Z,97419.47
2023-04-10T12:22:55.617Z,97418.09
2023-04-10T12:27:00.378Z,97416.75
2023-04-10T12:31:04.388Z,97407.50
2023-04-10T12:35:06.738Z,97409.31
2023-04-10T12:39:08.574Z,97407.84
2023-04-10T12:43:08.957Z,97397.88
2023-04-10T12:47:12.150Z,97398.69
2023-04-10T12:51:12.879Z,97390.09
2023-04-10T12:55:17.815Z,97391.88
2023-04-10T12:59:18.840Z,97371.34
2023-04-10T13:03:22.297Z,97373.75
2023-04-10T13:07:22.898Z,97370.88
2023-04-10T13:11:25.064Z,97355.81
2023-04-10T13:15:25.830Z,97350.97
2023-04-10T13:19:29.004Z,97348.78
2023-04-10T13:23:29.526Z,97346.09
2023-04-10T13:27:30.171Z,97339.56
2023-04-10T13:31:30.735Z,97342.25
2023-04-10T13:35:36.271Z,97317.25
2023-04-10T13:39:37.689Z,97310.63
2023-04-10T13:43:38.136Z,97292.41
2023-04-10T13:47:38.988Z,97307.59
2023-04-10T13:51:42.203Z,97306.41
2023-04-10T13:55:47.012Z,97305.91
2023-04-10T13:59:47.856Z,97290.50
2023-04-10T14:03:48.565Z,97297.94
2023-04-10T14:07:56.995Z,97285.69
2023-04-10T14:11:58.107Z,97283.41
2023-04-10T14:16:02.908Z,97266.28
2023-04-10T14:20:03.511Z,97268.56
2023-04-10T14:24:09.158Z,97256.13
2023-04-10T14:28:17.574Z,97249.28
2023-04-10T14:32:18.418Z,97262.09
2023-04-10T14:36:18.958Z,97262.50
2023-04-10T14:40:22.195Z,97248.50
2023-04-10T14:44:23.919Z,97245.56
2023-04-10T14:48:24.498Z,97241.78
2023-04-10T14:52:25.269Z,97240.44
2023-04-10T14:56:28.407Z,97224.03
2023-04-10T15:00:30.027Z,97218.38
2023-04-10T15:04:30.723Z,97223.34
2023-04-10T15:08:31.350Z,97207.56
2023-04-10T15:12:34.365Z,97200.09
2023-04-10T15:16:34.748Z,97200.03
2023-04-10T15:20:36.975Z,97195.16
2023-04-10T15:24:49.382Z,97188.72
2023-04-10T15:28:53.855Z,97186.75
2023-04-10T15:32:54.625Z,97181.53
2023-04-10T15:36:56.394Z,97175.31
2023-04-10T15:40:56.848Z,97176.34
2023-04-10T15:45:01.380Z,97168.69
2023-04-10T15:49:02.241Z,97167.78
2023-04-10T15:53:02.875Z,97170.69
2023-04-10T15:57:06.773Z,97167.69
2023-04-10T16:01:11.815Z,97163.16
2023-04-10T16:05:12.859Z,97156.56
2023-04-10T16:09:24.723Z,97136.84
2023-04-10T16:13:27.006Z,97142.91
2023-04-10T16:17:30.085Z,97136.97
2023-04-10T16:21:33.186Z,97112.16
2023-04-10T16:25:37.181Z,97122.22
2023-04-10T16:29:45.532Z,97129.25
2023-04-10T16:33:51.281Z,97130.44
2023-04-10T16:37:52.330Z,97118.53
2023-04-10T16:41:55.259Z,97118.66
2023-04-10T16:46:00.293Z,97119.88
2023-04-10T16:50:04.258Z,97121.50
2023-04-10T16:54:04.827Z,97122.94
2023-04-10T16:58:05.770Z,97119.53
2023-04-10T17:02:06.251Z,97106.41
2023-04-10T17:06:14.720Z,97107.22
2023-04-10T17:10:15.804Z,97113.94
2023-04-10T17:14:17.581Z,97108.56
2023-04-10T17:18:21.874Z,97102.78
2023-04-10T17:22:37.993Z,97090.09
2023-04-10T17:26:40.375Z,97091.81
2023-04-10T17:30:41.591Z,97077.97
2023-04-10T17:34:43.049Z,97082.50
2023-04-10T17:38:48.920Z,97075.03
2023-04-10T17:42:51.054Z,97072.34
2023-04-10T17:46:54.710Z,97072.88
2023-04-10T17:51:00.430Z,97063.50
2023-04-10T17:55:05.910Z,97071.28
2023-04-10T17:59:06.380Z,97065.09
2023-04-10T18:03:10.467Z,97050.38
2023-04-10T18:07:11.346Z,97065.34
2023-04-10T18:11:19.485Z,97067.94
2023-04-10T18:15:22.188Z,97060.50
2023-04-10T18:19:23.065Z,97060.97
2023-04-10T18:23:26.238Z,97042.19
2023-04-10T18:27:31.816Z,97042.22
2023-04-10T18:31:36.865Z,97041.16
2023-04-10T18:35:38.230Z,97044.50
2023-04-10T18:39:38.669Z,97039.09
2023-04-10T18:43:48.676Z,97039.34
2023-04-10T18:47:54.587Z,97052.19
2023-04-10T18:51:55.170Z,97047.31
2023-04-10T18:55:57.137Z,97037.94
2023-04-10T19:00:02.065Z,97030.72
2023-04-10T19:04:05.353Z,97031.19
2023-04-10T19:08:06.752Z,97015.16
2023-04-10T19:12:08.920Z,97023.13
2023-04-10T19:16:14.972Z,97011.25
2023-04-10T19:20:16.189Z,96999.78
2023-04-10T19:24:17.782Z,96993.44
2023-04-10T19:28:21.414Z,97004.75
2023-04-10T19:32:25.511Z,96991.81
2023-04-10T19:36:31.509Z,96993.56
2023-04-10T19:40:37.297Z,96991.13
2023-04-10T19:44:40.673Z,96992.38
2023-04-10T19:48:44.831Z,96986.66
2023-04-10T19:52:45.975Z,96995.22
2023-04-10T19:56:49.645Z,96988.75
2023-04-10T20:00:52.519Z,96997.59
2023-04-10T20:04:57.529Z,96981.28
2023-04-10T20:08:57.977Z,96984.66
2023-04-10T20:12:58.644Z,96982.91
2023-04-10T20:16:59.206Z,96968.19
2023-04-10T20:21:03.207Z,96982.91
2023-04-10T20:25:04.040Z,96973.41
2023-04-10T20:29:05.918Z,96967.19
2023-04-10T20:33:16.565Z,96958.91
2023-04-10T20:37:22.148Z,96938.66
2023-04-10T20:41:25.265Z,96925.91
2023-04-10T20:45:26.558Z,96936.66
2023-04-10T20:49:28.036Z,96943.34
2023-04-10T20:53:32.036Z,96947.47
2023-04-10T20:57:33.216Z,96953.28
2023-04-10T21:01:37.543Z,96934.31
2023-04-10T21:05:42.113Z,96934.75
2023-04-10T21:09:45.938Z,96946.22
2023-04-10T21:13:46.628Z,96938.56
2023-04-10T21:17:47.614Z,96926.94
2023-04-10T21:21:47.992Z,96923.78
2023-04-10T21:25:55.569Z,96902.69
2023-04-10T21:29:56.202Z,96900.59
2023-04-10T21:33:56.799Z,96889.28
2023-04-10T21:38:02.281Z,96907.72
2023-04-10T21:42:06.021Z,96912.28
2023-04-10T21:46:07.062Z,96912.59
2023-04-10T21:50:08.636Z,96900.91
2023-04-10T21:54:09.472Z,96883.09
2023-04-10T21:58:14.989Z,96871.34
2023-04-10T22:02:15.870Z,96862.84
2023-04-10T22:06:16.372Z,96855.88
2023-04-10T22:10:16.966Z,96861.25
2023-04-10T22:14:21.383Z,96856.88
2023-04-10T22:18:22.298Z,96855.13
2023-04-10T22:22:24.663Z,96836.69
2023-04-10T22:26:25.345Z,96828.06
2023-04-10T22:30:29.921Z,96828.91
2023-04-10T22:34:30.699Z,96816.91
2023-04-10T22:38:31.271Z,96823.34
2023-04-10T22:42:32.237Z,96832.34
2023-04-10T22:46:35.353Z,96829.56
2023-04-10T22:50:38.188Z,96829.13
2023-04-10T22:54:38.813Z,96829.00
2023-04-10T22:58:40.247Z,96821.56
2023-04-10T23:02:43.533Z,96816.72
2023-04-10T23:06:44.173Z,96789.00
2023-04-10T23:10:45.018Z,96780.50
2023-04-10T23:14:46.006Z,96764.16
2023-04-10T23:18:49.506Z,96764.53
2023-04-10T23:22:50.346Z,96746.88
2023-04-10T23:26:50.654Z,96746.59
2023-04-10T23:30:51.106Z,96738.97
2023-04-10T23:34:54.456Z,96728.19
2023-04-10T23:38:55.092Z,96719.66
2023-04-10T23:42:55.828Z,96715.81
2023-04-10T23:46:56.532Z,96709.81
2023-04-10T23:51:09.597Z,96706.31
2023-04-10T23:55:11.616Z,96695.28
2023-04-10T23:59:14.526Z,96694.63
